createdAt,value
2022-09-13T00:00:40.546Z,101024.19
2022-09-13T00:03:08.308Z,101014.88
2022-09-13T00:05:36.257Z,101023.00
2022-09-13T00:08:04.269Z,101025.84
2022-09-13T00:10:33.062Z,101024.31
2022-09-13T00:13:00.523Z,101021.50
2022-09-13T00:15:28.406Z,101033.28
2022-09-13T00:17:57.257Z,101029.28
2022-09-13T00:20:24.766Z,101029.75
2022-09-13T00:22:52.463Z,101031.41
2022-09-13T00:25:20.441Z,101024.22
2022-09-13T00:27:48.179Z,101023.06
2022-09-13T00:30:15.667Z,101017.88
2022-09-13T00:32:43.155Z,101003.75
2022-09-13T00:35:11.992Z,101004.19
2022-09-13T00:37:39.544Z,101003.38
2022-09-13T00:40:08.027Z,101003.38
2022-09-13T00:42:35.563Z,100996.91
2022-09-13T00:45:04.034Z,100994.09
2022-09-13T00:47:34.957Z,100991.25
2022-09-13T00:50:05.355Z,100987.59
2022-09-13T00:52:36.605Z,100999.34
2022-09-13T00:55:05.605Z,100992.53
2022-09-13T00:57:35.103Z,100986.53
2022-09-13T01:00:08.928Z,100988.19
2022-09-13T01:02:36.764Z,100980.19
2022-09-13T01:05:04.453Z,100983.00
2022-09-13T01:07:31.972Z,100979.34
2022-09-13T01:10:01.070Z,100979.34
2022-09-13T01:12:33.269Z,100982.66
2022-09-13T01:15:01.889Z,100984.66
2022-09-13T01:17:31.056Z,100977.81
2022-09-13T01:19:58.912Z,100977.00
2022-09-13T01:22:36.399Z,100967.34
2022-09-13T01:25:18.778Z,100964.97
2022-09-13T01:27:52.638Z,100975.13
2022-09-13T01:30:21.855Z,100980.78
2022-09-13T01:33:04.691Z,100982.44
2022-09-13T01:35:40.146Z,100974.78
2022-09-13T01:38:15.119Z,100978.41
2022-09-13T01:40:52.282Z,100974.78
2022-09-13T01:43:26.132Z,100973.94
2022-09-13T01:46:00.213Z,100969.13
2022-09-13T01:48:35.495Z,100967.47
2022-09-13T01:51:06.199Z,100969.13
2022-09-13T01:53:36.078Z,100973.94
2022-09-13T01:56:06.678Z,100971.13
2022-09-13T01:58:39.040Z,100965.09
2022-09-13T02:01:11.049Z,100961.09
2022-09-13T02:03:41.015Z,100963.59
2022-09-13T02:06:10.429Z,100970.88
2022-09-13T02:08:41.657Z,100962.41
2022-09-13T02:11:10.741Z,100964.41
2022-09-13T02:13:40.598Z,100966.88
2022-09-13T02:16:12.294Z,100967.69
2022-09-13T02:18:46.622Z,100963.69
2022-09-13T02:21:16.659Z,100967.69
2022-09-13T02:23:46.614Z,100980.66
2022-09-13T02:26:15.567Z,100976.91
2022-09-13T02:28:46.635Z,100980.31
2022-09-13T02:31:18.026Z,100984.19
2022-09-13T02:33:48.054Z,100977.13
2022-09-13T02:36:18.037Z,100982.19
2022-09-13T02:38:48.112Z,100973.91
2022-09-13T02:41:19.273Z,100977.78
2022-09-13T02:43:49.654Z,100979.66
2022-09-13T02:46:22.821Z,100975.03
2022-09-13T02:48:59.192Z,100975.75
2022-09-13T02:51:31.072Z,100975.97
2022-09-13T02:54:05.262Z,100988.31
2022-09-13T02:56:36.373Z,100977.25
2022-09-13T02:59:06.381Z,100986.41
2022-09-13T03:01:36.494Z,100989.09
2022-09-13T03:04:04.123Z,100984.63
2022-09-13T03:06:31.640Z,100983.31
2022-09-13T03:09:01.527Z,100996.47
2022-09-13T03:11:33.993Z,100997.19
2022-09-13T03:14:19.732Z,100987.28
2022-09-13T03:16:57.060Z,100992.31
2022-09-13T03:19:30.325Z,100995.00
2022-09-13T03:22:07.454Z,101002.50
2022-09-13T03:24:39.617Z,100995.59
2022-09-13T03:27:11.924Z,100999.09
2022-09-13T03:29:42.604Z,100999.44
2022-09-13T03:32:19.746Z,101005.09
2022-09-13T03:34:50.121Z,100999.78
2022-09-13T03:37:23.168Z,100998.94
2022-09-13T03:39:54.732Z,101006.59
2022-09-13T03:42:27.099Z,101000.13
2022-09-13T03:44:56.608Z,100999.28
2022-09-13T03:47:26.331Z,100996.47
2022-09-13T03:49:54.474Z,100998.47
2022-09-13T03:52:22.027Z,101007.75
2022-09-13T03:54:49.550Z,100999.63
2022-09-13T03:57:18.052Z,100998.47
2022-09-13T03:59:47.185Z,100994.81
2022-09-13T04:02:15.645Z,101006.09
2022-09-13T04:04:45.324Z,100997.97
2022-09-13T04:07:13.976Z,101003.63
2022-09-13T04:09:41.540Z,100999.97
2022-09-13T04:12:10.161Z,101002.47
2022-09-13T04:14:37.699Z,101003.28
2022-09-13T04:17:05.248Z,100999.28
2022-09-13T04:19:32.777Z,100999.28
2022-09-13T04:22:01.658Z,101002.59
2022-09-13T04:24:29.741Z,101002.59
2022-09-13T04:26:57.541Z,101002.25
2022-09-13T04:29:26.411Z,101007.91
2022-09-13T04:31:54.491Z,101006.72
2022-09-13T04:34:23.008Z,101007.56
2022-09-13T04:36:50.960Z,101009.22
2022-09-13T04:39:20.001Z,101006.06
2022-09-13T04:41:48.255Z,101010.88
2022-09-13T04:44:16.500Z,101014.16
2022-09-13T04:46:44.442Z,101011.31
2022-09-13T04:49:12.285Z,101010.97
2022-09-13T04:51:39.796Z,101010.97
2022-09-13T04:54:08.480Z,101015.47
2022-09-13T04:56:39.805Z,101018.28
2022-09-13T04:59:07.935Z,101017.44
2022-09-13T05:01:35.498Z,101017.78
2022-09-13T05:04:03.204Z,101023.00
2022-09-13T05:06:30.732Z,101022.50
2022-09-13T05:08:58.262Z,101026.00
2022-09-13T05:11:26.488Z,101026.00
2022-09-13T05:13:56.176Z,101026.69
2022-09-13T05:16:24.123Z,101029.88
2022-09-13T05:18:52.073Z,101035.84
2022-09-13T05:21:20.110Z,101041.84
2022-09-13T05:23:49.453Z,101032.06
2022-09-13T05:26:17.315Z,101034.06
2022-09-13T05:28:44.869Z,101033.22
2022-09-13T05:31:16.637Z,101039.69
2022-09-13T05:33:44.729Z,101047.34
2022-09-13T05:36:12.238Z,101043.69
2022-09-13T05:38:39.728Z,101038.38
2022-09-13T05:41:07.261Z,101043.25
2022-09-13T05:43:35.470Z,101048.88
2022-09-13T05:46:03.777Z,101048.06
2022-09-13T05:48:35.139Z,101055.31
2022-09-13T05:51:07.047Z,101045.69
2022-09-13T05:53:34.972Z,101056.97
2022-09-13T05:56:02.672Z,101055.31
2022-09-13T05:58:30.197Z,101060.97
2022-09-13T06:00:58.157Z,101063.78
2022-09-13T06:03:25.994Z,101073.09
2022-09-13T06:05:57.441Z,101081.94
2022-09-13T06:08:25.055Z,101071.81
2022-09-13T06:10:56.413Z,101077.44
2022-09-13T06:13:24.328Z,101079.09
2022-09-13T06:15:52.214Z,101090.41
2022-09-13T06:18:19.927Z,101085.09
2022-09-13T06:20:47.751Z,101090.75
2022-09-13T06:23:16.654Z,101090.25
2022-09-13T06:25:44.441Z,101099.53
2022-09-13T06:28:11.988Z,101098.72
2022-09-13T06:30:39.478Z,101094.84
2022-09-13T06:33:06.971Z,101086.66
2022-09-13T06:35:34.534Z,101082.50
2022-09-13T06:38:02.040Z,101082.63
2022-09-13T06:40:30.937Z,101088.28
2022-09-13T06:42:58.506Z,101083.81
2022-09-13T06:45:26.504Z,101084.41
2022-09-13T06:47:55.065Z,101085.94
2022-09-13T06:50:22.915Z,101086.78
2022-09-13T06:52:50.430Z,101085.66
2022-09-13T06:55:18.026Z,101083.69
2022-09-13T06:57:46.887Z,101088.69
2022-09-13T07:00:15.058Z,101090.94
2022-09-13T07:02:42.591Z,101084.50
2022-09-13T07:05:10.906Z,101086.66
2022-09-13T07:07:38.396Z,101085.19
2022-09-13T07:10:06.412Z,101079.78
2022-09-13T07:12:33.983Z,101085.22
2022-09-13T07:15:02.901Z,101089.53
2022-09-13T07:17:31.590Z,101096.31
2022-09-13T07:19:59.254Z,101095.25
2022-09-13T07:22:27.909Z,101092.72
2022-09-13T07:24:55.406Z,101092.41
2022-09-13T07:27:22.923Z,101091.88
2022-09-13T07:29:50.404Z,101099.06
2022-09-13T07:32:19.711Z,101094.84
2022-09-13T07:34:47.242Z,101090.84
2022-09-13T07:37:14.769Z,101097.97
2022-09-13T07:39:42.318Z,101109.53
2022-09-13T07:42:09.888Z,101113.13
2022-09-13T07:44:38.438Z,101108.41
2022-09-13T07:47:07.586Z,101107.56
2022-09-13T07:49:36.443Z,101115.00
2022-09-13T07:52:04.016Z,101121.38
2022-09-13T07:54:31.592Z,101118.78
2022-09-13T07:56:59.099Z,101124.22
2022-09-13T07:59:30.043Z,101123.19
2022-09-13T08:01:57.885Z,101116.69
2022-09-13T08:04:27.013Z,101124.09
2022-09-13T08:06:55.910Z,101124.88
2022-09-13T08:09:24.095Z,101126.91
2022-09-13T08:11:52.802Z,101125.63
2022-09-13T08:14:21.050Z,101131.34
2022-09-13T08:16:48.637Z,101124.81
2022-09-13T08:19:17.211Z,101126.44
2022-09-13T08:21:45.140Z,101130.53
2022-09-13T08:24:15.985Z,101130.44
2022-09-13T08:26:43.694Z,101132.44
2022-09-13T08:29:12.930Z,101141.75
2022-09-13T08:31:40.587Z,101130.88
2022-09-13T08:34:08.805Z,101132.41
2022-09-13T08:36:36.761Z,101131.78
2022-09-13T08:39:04.478Z,101135.50
2022-09-13T08:41:45.267Z,101136.28
2022-09-13T08:44:19.006Z,101150.38
2022-09-13T08:46:47.838Z,101155.00
2022-09-13T08:49:18.863Z,101142.69
2022-09-13T08:51:48.264Z,101149.91
2022-09-13T08:54:16.547Z,101134.13
2022-09-13T08:56:51.494Z,101137.22
2022-09-13T08:59:34.200Z,101140.56
2022-09-13T09:02:08.733Z,101130.84
2022-09-13T09:04:39.946Z,101136.19
2022-09-13T09:07:11.482Z,101138.13
2022-09-13T09:09:42.109Z,101129.78
2022-09-13T09:12:16.414Z,101132.56
2022-09-13T09:14:46.599Z,101134.06
2022-09-13T09:17:15.790Z,101135.50
2022-09-13T09:19:44.890Z,101133.09
2022-09-13T09:22:14.811Z,101146.16
2022-09-13T09:24:46.606Z,101140.56
2022-09-13T09:27:16.398Z,101140.47
2022-09-13T09:29:44.946Z,101137.50
2022-09-13T09:32:18.717Z,101139.47
2022-09-13T09:34:53.732Z,101144.00
2022-09-13T09:37:22.185Z,101146.88
2022-09-13T09:39:51.006Z,101147.72
2022-09-13T09:42:24.879Z,101147.00
2022-09-13T09:44:53.502Z,101147.78
2022-09-13T09:47:27.229Z,101143.63
2022-09-13T09:50:10.382Z,101137.44
2022-09-13T09:52:40.741Z,101144.50
2022-09-13T09:55:28.942Z,101128.16
2022-09-13T09:57:59.403Z,101131.41
2022-09-13T10:00:28.860Z,101134.28
2022-09-13T10:02:59.546Z,101135.19
2022-09-13T10:05:27.795Z,101138.94
2022-09-13T10:07:59.549Z,101140.13
2022-09-13T10:10:31.267Z,101138.81
2022-09-13T10:13:00.843Z,101135.47
2022-09-13T10:15:32.912Z,101135.47
2022-09-13T10:18:43.890Z,101126.59
2022-09-13T10:21:07.156Z,101130.00
2022-09-13T10:23:35.422Z,101134.53
2022-09-13T10:26:05.573Z,101141.09
2022-09-13T10:28:36.255Z,101143.91
2022-09-13T10:31:05.958Z,101146.31
2022-09-13T10:33:35.948Z,101135.53
2022-09-13T10:36:05.659Z,101137.13
2022-09-13T10:38:34.907Z,101128.59
2022-09-13T10:41:03.495Z,101135.78
2022-09-13T10:43:32.185Z,101130.97
2022-09-13T10:46:02.762Z,101136.44
2022-09-13T10:48:32.267Z,101139.34
2022-09-13T10:51:04.468Z,101139.34
2022-09-13T10:53:34.270Z,101136.13
2022-09-13T10:56:02.625Z,101132.88
2022-09-13T10:58:30.399Z,101132.94
2022-09-13T11:01:24.779Z,101123.97
2022-09-13T11:04:04.354Z,101133.41
2022-09-13T11:06:35.361Z,101135.47
2022-09-13T11:09:08.951Z,101131.81
2022-09-13T11:11:40.756Z,101136.75
2022-09-13T11:14:17.577Z,101131.81
2022-09-13T11:16:52.269Z,101132.66
2022-09-13T11:19:40.097Z,101128.91
2022-09-13T11:22:17.745Z,101137.91
2022-09-13T11:24:54.502Z,101137.84
2022-09-13T11:27:26.945Z,101125.53
2022-09-13T11:30:02.252Z,101135.34
2022-09-13T11:32:39.629Z,101135.31
2022-09-13T11:35:23.773Z,101144.75
2022-09-13T11:37:56.967Z,101142.63
2022-09-13T11:40:29.651Z,101141.81
2022-09-13T11:43:06.286Z,101145.06
2022-09-13T11:45:39.787Z,101134.41
2022-09-13T11:48:28.173Z,101133.59
2022-09-13T11:51:03.117Z,101141.47
2022-09-13T11:53:50.267Z,101127.16
2022-09-13T11:56:22.921Z,101131.28
2022-09-13T11:58:52.820Z,101120.63
2022-09-13T12:01:23.537Z,101128.91
2022-09-13T12:03:53.624Z,101110.94
2022-09-13T12:06:24.494Z,101116.72
2022-09-13T12:08:54.667Z,101126.56
2022-09-13T12:11:24.657Z,101116.72
2022-09-13T12:13:53.387Z,101116.31
2022-09-13T12:16:24.927Z,101106.03
2022-09-13T12:18:54.061Z,101103.56
2022-09-13T12:21:24.088Z,101106.03
2022-09-13T12:23:56.031Z,101105.56
2022-09-13T12:26:26.160Z,101090.78
2022-09-13T12:28:55.527Z,101086.25
2022-09-13T12:31:24.370Z,101085.78
2022-09-13T12:33:52.066Z,101085.38
2022-09-13T12:36:39.762Z,101088.19
2022-09-13T12:39:16.600Z,101097.13
2022-09-13T12:41:51.849Z,101102.44
2022-09-13T12:44:25.078Z,101104.00
2022-09-13T12:47:11.533Z,101094.16
2022-09-13T12:49:46.036Z,101093.72
2022-09-13T12:52:28.483Z,101098.16
2022-09-13T12:55:35.533Z,101100.47
2022-09-13T12:58:07.992Z,101094.69
2022-09-13T13:00:39.932Z,101094.22
2022-09-13T13:03:15.056Z,101099.00
2022-09-13T13:05:44.353Z,101103.03
2022-09-13T13:08:24.272Z,101092.91
2022-09-13T13:11:03.525Z,101091.34
2022-09-13T13:13:34.641Z,101084.06
2022-09-13T13:16:03.902Z,101086.03
2022-09-13T13:18:33.436Z,101093.22
2022-09-13T13:21:23.777Z,101091.81
2022-09-13T13:24:06.212Z,101086.47
2022-09-13T13:26:48.602Z,101086.47
2022-09-13T13:29:17.672Z,101084.81
2022-09-13T13:32:04.327Z,101092.03
2022-09-13T13:34:35.154Z,101088.59
2022-09-13T13:37:04.235Z,101097.84
2022-09-13T13:39:39.838Z,101093.28
2022-09-13T13:42:24.672Z,101091.50
2022-09-13T13:44:58.502Z,101087.38
2022-09-13T13:47:43.661Z,101096.88
2022-09-13T13:50:16.706Z,101100.97
2022-09-13T13:53:06.205Z,101107.34
2022-09-13T13:55:41.433Z,101108.94
2022-09-13T13:58:31.221Z,101103.28
2022-09-13T14:01:00.648Z,101104.50
2022-09-13T14:03:33.145Z,101107.25
2022-09-13T14:06:06.219Z,101110.53
2022-09-13T14:08:38.691Z,101111.78
2022-09-13T14:11:15.109Z,101104.44
2022-09-13T14:13:52.045Z,101104.06
2022-09-13T14:16:29.442Z,101099.88
2022-09-13T14:19:07.400Z,101108.72
2022-09-13T14:21:34.909Z,101099.66
2022-09-13T14:24:09.491Z,101110.97
2022-09-13T14:26:37.190Z,101103.50
2022-09-13T14:29:08.933Z,101105.81
2022-09-13T14:31:36.690Z,101114.25
2022-09-13T14:34:04.376Z,101114.53
2022-09-13T14:36:31.901Z,101112.00
2022-09-13T14:39:00.247Z,101115.22
2022-09-13T14:41:31.775Z,101118.00
2022-09-13T14:44:20.219Z,101118.25
2022-09-13T14:46:56.257Z,101118.84
2022-09-13T14:49:26.055Z,101126.84
2022-09-13T14:51:56.826Z,101126.78
2022-09-13T14:54:29.814Z,101126.66
2022-09-13T14:56:58.794Z,101125.19
2022-09-13T14:59:28.789Z,101136.44
2022-09-13T15:02:02.788Z,101131.09
2022-09-13T15:04:30.866Z,101132.22
2022-09-13T15:07:09.117Z,101131.75
2022-09-13T15:09:38.296Z,101134.84
2022-09-13T15:12:06.762Z,101137.25
2022-09-13T15:14:37.273Z,101129.84
2022-09-13T15:17:10.212Z,101139.72
2022-09-13T15:19:39.126Z,101132.59
2022-09-13T15:22:12.391Z,101126.75
2022-09-13T15:24:43.714Z,101131.94
2022-09-13T15:27:18.393Z,101112.69
2022-09-13T15:29:49.753Z,101126.47
2022-09-13T15:32:22.720Z,101110.22
2022-09-13T15:34:51.083Z,101122.34
2022-09-13T15:37:20.635Z,101123.00
2022-09-13T15:39:49.434Z,101125.72
2022-09-13T15:42:17.747Z,101114.53
2022-09-13T15:44:45.530Z,101111.94
2022-09-13T15:47:17.086Z,101112.13
2022-09-13T15:49:48.821Z,101117.19
2022-09-13T15:52:17.571Z,101121.41
2022-09-13T15:54:47.530Z,101122.88
2022-09-13T15:57:18.203Z,101122.72
2022-09-13T15:59:45.711Z,101115.56
2022-09-13T16:02:18.667Z,101112.16
2022-09-13T16:04:46.253Z,101106.34
2022-09-13T16:07:17.119Z,101114.66
2022-09-13T16:09:45.118Z,101110.00
2022-09-13T16:12:12.683Z,101107.44
2022-09-13T16:14:40.216Z,101104.03
2022-09-13T16:17:11.273Z,101109.16
2022-09-13T16:19:38.878Z,101102.09
2022-09-13T16:22:09.675Z,101102.00
2022-09-13T16:24:41.016Z,101096.13
2022-09-13T16:27:08.558Z,101093.09
2022-09-13T16:29:36.100Z,101085.22
2022-09-13T16:32:04.041Z,101085.84
2022-09-13T16:34:31.540Z,101090.16
2022-09-13T16:36:59.040Z,101082.97
2022-09-13T16:39:26.621Z,101078.75
2022-09-13T16:41:55.514Z,101079.03
2022-09-13T16:44:23.080Z,101080.00
2022-09-13T16:46:50.640Z,101084.53
2022-09-13T16:49:18.237Z,101084.88
2022-09-13T16:51:45.779Z,101087.41
2022-09-13T16:54:13.250Z,101087.53
2022-09-13T16:56:41.383Z,101082.03
2022-09-13T16:59:10.243Z,101080.63
2022-09-13T17:01:37.863Z,101095.72
2022-09-13T17:04:05.917Z,101089.84
2022-09-13T17:06:33.479Z,101097.63
2022-09-13T17:09:01.651Z,101091.75
2022-09-13T17:11:30.491Z,101087.34
2022-09-13T17:13:58.125Z,101083.34
2022-09-13T17:16:29.343Z,101077.31
2022-09-13T17:18:58.178Z,101087.94
2022-09-13T17:21:25.733Z,101078.72
2022-09-13T17:23:53.615Z,101073.63
2022-09-13T17:26:21.169Z,101070.22
2022-09-13T17:28:48.731Z,101071.97
2022-09-13T17:31:16.783Z,101076.19
2022-09-13T17:33:45.880Z,101075.59
2022-09-13T17:36:14.488Z,101084.78
2022-09-13T17:38:42.589Z,101082.16
2022-09-13T17:41:11.573Z,101071.41
2022-09-13T17:43:39.464Z,101071.97
2022-09-13T17:46:07.938Z,101063.22
2022-09-13T17:48:36.057Z,101069.31
2022-09-13T17:51:05.729Z,101074.34
2022-09-13T17:53:37.512Z,101075.59
2022-09-13T17:56:05.021Z,101070.84
2022-09-13T17:58:32.691Z,101066.91
2022-09-13T18:01:03.396Z,101071.94
2022-09-13T18:03:31.736Z,101069.00
2022-09-13T18:05:59.751Z,101070.84
2022-09-13T18:08:29.646Z,101072.22
2022-09-13T18:11:12.658Z,101073.56
2022-09-13T18:13:41.452Z,101080.63
2022-09-13T18:16:09.820Z,101077.16
2022-09-13T18:18:43.162Z,101078.47
2022-09-13T18:21:11.515Z,101079.50
2022-09-13T18:23:40.372Z,101080.06
2022-09-13T18:26:10.982Z,101067.66
2022-09-13T18:28:38.866Z,101069.81
2022-09-13T18:31:07.430Z,101066.38
2022-09-13T18:33:35.039Z,101070.22
2022-09-13T18:36:03.658Z,101065.44
2022-09-13T18:38:32.553Z,101063.66
2022-09-13T18:41:03.153Z,101060.19
2022-09-13T18:43:31.312Z,101054.72
2022-09-13T18:45:59.631Z,101057.72
2022-09-13T18:48:30.077Z,101059.94
2022-09-13T18:50:58.319Z,101057.28
2022-09-13T18:53:34.470Z,101056.63
2022-09-13T18:56:05.260Z,101053.16
2022-09-13T18:58:34.389Z,101055.34
2022-09-13T19:01:03.482Z,101053.03
2022-09-13T19:03:32.610Z,101056.00
2022-09-13T19:06:11.065Z,101063.81
2022-09-13T19:08:39.247Z,101068.47
2022-09-13T19:11:23.793Z,101064.97
2022-09-13T19:13:58.163Z,101060.69
2022-09-13T19:16:26.520Z,101057.22
2022-09-13T19:18:54.404Z,101055.41
2022-09-13T19:21:23.784Z,101056.06
2022-09-13T19:23:59.509Z,101050.25
2022-09-13T19:26:31.366Z,101051.75
2022-09-13T19:29:04.821Z,101054.44
2022-09-13T19:31:33.145Z,101046.97
2022-09-13T19:34:02.549Z,101056.09
2022-09-13T19:36:34.031Z,101051.78
2022-09-13T19:39:02.545Z,101058.88
2022-09-13T19:41:31.691Z,101057.09
2022-09-13T19:44:00.262Z,101059.72
2022-09-13T19:46:28.890Z,101054.75
2022-09-13T19:48:56.892Z,101056.56
2022-09-13T19:51:26.864Z,101059.53
2022-09-13T19:54:04.161Z,101053.41
2022-09-13T19:56:34.105Z,101043.16
2022-09-13T19:59:02.245Z,101049.44
2022-09-13T20:01:31.551Z,101056.56
2022-09-13T20:04:00.150Z,101057.53
2022-09-13T20:06:28.241Z,101053.72
2022-09-13T20:08:58.730Z,101059.19
2022-09-13T20:11:28.374Z,101052.53
2022-09-13T20:13:59.263Z,101056.00
2022-09-13T20:16:28.531Z,101052.16
2022-09-13T20:18:57.084Z,101059.59
2022-09-13T20:21:25.313Z,101063.88
2022-09-13T20:23:54.841Z,101065.41
2022-09-13T20:26:24.237Z,101059.59
2022-09-13T20:28:54.355Z,101062.72
2022-09-13T20:31:23.450Z,101062.53
2022-09-13T20:33:54.874Z,101058.41
2022-09-13T20:36:22.388Z,101060.19
2022-09-13T20:38:50.255Z,101054.44
2022-09-13T20:41:18.444Z,101055.41
2022-09-13T20:43:46.043Z,101049.59
2022-09-13T20:46:14.416Z,101056.19
2022-09-13T20:48:44.425Z,101046.41
2022-09-13T20:51:12.933Z,101049.88
2022-09-13T20:53:40.476Z,101051.03
2022-09-13T20:56:09.180Z,101048.88
2022-09-13T20:58:37.105Z,101051.19
2022-09-13T21:01:05.696Z,101034.66
2022-09-13T21:03:35.615Z,101034.47
2022-09-13T21:06:04.510Z,101036.44
2022-09-13T21:08:43.357Z,101038.75
2022-09-13T21:11:12.638Z,101045.00
2022-09-13T21:13:41.951Z,101044.00
2022-09-13T21:16:10.616Z,101039.03
2022-09-13T21:18:38.552Z,101036.53
2022-09-13T21:21:08.080Z,101040.00
2022-09-13T21:23:39.563Z,101037.00
2022-09-13T21:26:08.221Z,101028.06
2022-09-13T21:28:36.209Z,101031.50
2022-09-13T21:31:05.063Z,101027.72
2022-09-13T21:33:32.632Z,101030.00
2022-09-13T21:36:01.132Z,101027.84
2022-09-13T21:38:31.469Z,101025.69
2022-09-13T21:41:00.534Z,101022.34
2022-09-13T21:43:28.935Z,101021.34
2022-09-13T21:46:00.527Z,101028.41
2022-09-13T21:48:30.065Z,101021.44
2022-09-13T21:51:03.000Z,101020.63
2022-09-13T21:53:33.942Z,101030.53
2022-09-13T21:56:01.648Z,101023.25
2022-09-13T21:58:29.147Z,101030.00
2022-09-13T22:00:56.730Z,101027.19
2022-09-13T22:03:24.291Z,101030.53
2022-09-13T22:05:56.084Z,101028.53
2022-09-13T22:08:24.111Z,101024.91
2022-09-13T22:10:53.041Z,101024.91
2022-09-13T22:13:20.552Z,101016.81
2022-09-13T22:15:48.063Z,101007.88
2022-09-13T22:18:15.539Z,101000.09
2022-09-13T22:20:43.024Z,101008.00
2022-09-13T22:23:10.576Z,101006.66
2022-09-13T22:25:41.192Z,101007.81
2022-09-13T22:28:10.055Z,101002.81
2022-09-13T22:30:37.645Z,101007.13
2022-09-13T22:33:05.190Z,101004.63
2022-09-13T22:35:32.705Z,101005.28
2022-09-13T22:38:00.207Z,101003.94
2022-09-13T22:40:27.828Z,100996.97
2022-09-13T22:42:55.369Z,101002.06
2022-09-13T22:45:24.208Z,101013.94
2022-09-13T22:47:51.683Z,101006.16
2022-09-13T22:50:19.193Z,101012.06
2022-09-13T22:52:46.684Z,101018.88
2022-09-13T22:55:14.153Z,101015.84
2022-09-13T22:57:41.654Z,101020.94
2022-09-13T23:00:10.262Z,101023.25
2022-09-13T23:02:42.044Z,101011.50
2022-09-13T23:05:12.734Z,101016.59
2022-09-13T23:07:40.235Z,101011.63
2022-09-13T23:10:08.402Z,101014.75
2022-09-13T23:12:35.913Z,101015.41
2022-09-13T23:15:03.423Z,101010.94
2022-09-13T23:17:30.931Z,101013.22
2022-09-13T23:19:59.898Z,101009.91
2022-09-13T23:22:27.403Z,101011.38
2022-09-13T23:24:54.868Z,100999.63
2022-09-13T23:27:22.832Z,100999.63
2022-09-13T23:29:50.658Z,100997.97
2022-09-13T23:32:18.202Z,100986.25
2022-09-13T23:34:45.709Z,100987.38
2022-09-13T23:37:14.612Z,100979.28
2022-09-13T23:39:43.478Z,100980.94
2022-09-13T23:42:11.945Z,100978.97
2022-09-13T23:44:39.509Z,100971.91
2022-09-13T23:47:07.226Z,100969.31
2022-09-13T23:49:34.741Z,100967.53
2022-09-13T23:52:02.341Z,100972.16
2022-09-13T23:54:31.193Z,100974.00
2022-09-13T23:56:58.687Z,100979.50
2022-09-13T23:59:26.226Z,100977.72
